LGL368 GVBA-ELLX
Flight info
| Callsign | LGL368 |
|---|---|
| Flight time | N/A |
| Altitude | 35000 |
| Route | PINPO1J PINPO DCT IPERA N873 ODEGI/N0465F340 N873 GDV N858 VASTO/N0460F360 DCT BAROK DCT SUNES DCT SOTEX DCT EVURA DCT BIRBA DCT PORTA DCT RODAP DCT BABOV DCT BARDI N873 DELOG DCT PEXOD DCT YURZI UL14 TEPRA UN873 OBATO UM163 TSU/N0456F280 UM163 LEQOS DCT CTL DCT MMD MMD2W |
| Aircraft | B38M/M-SDE1FGHILORVWXY/HB1 |
Departure
| Time | 2026-04-13 12:44 |
|---|---|
| Airport | Aristides Pereira International Airport (GVBA) |
Arrival
| Time | N/A |
|---|---|
| Airport | Luxembourg-Findel International Airport (ELLX) |
| Time | Latitude | Longitude | Altitude | Speed | Heading |
|---|---|---|---|---|---|
| 2026-04-13 12:05 | 16.13520 | -22.89118 | 60 ft | 0 kts | 286° |
| 2026-04-13 12:35 | 16.13516 | -22.89107 | 55 ft | 2 kts | 286° |
| 2026-04-13 12:35 | 16.13512 | -22.89090 | 54 ft | 3 kts | 286° |
| 2026-04-13 12:35 | 16.13507 | -22.89072 | 59 ft | 2 kts | 286° |
| 2026-04-13 12:36 | 16.13502 | -22.89056 | 55 ft | 2 kts | 286° |
| 2026-04-13 12:36 | 16.13497 | -22.89039 | 59 ft | 2 kts | 269° |
| 2026-04-13 12:36 | 16.13500 | -22.89028 | 58 ft | 0 kts | 238° |
| 2026-04-13 12:39 | 16.13496 | -22.89030 | 63 ft | 1 kts | 216° |
| 2026-04-13 12:39 | 16.13488 | -22.89031 | 57 ft | 1 kts | 173° |
| 2026-04-13 12:39 | 16.13477 | -22.89025 | 60 ft | 2 kts | 140° |
| 2026-04-13 12:39 | 16.13468 | -22.89011 | 58 ft | 4 kts | 119° |
| 2026-04-13 12:40 | 16.13448 | -22.88962 | 62 ft | 10 kts | 137° |
| 2026-04-13 12:40 | 16.13360 | -22.88975 | 55 ft | 16 kts | 197° |
| 2026-04-13 12:40 | 16.13237 | -22.89013 | 57 ft | 20 kts | 197° |
| 2026-04-13 12:40 | 16.13098 | -22.89056 | 62 ft | 21 kts | 197° |
| 2026-04-13 12:41 | 16.12962 | -22.89099 | 62 ft | 12 kts | 196° |
| 2026-04-13 12:41 | 16.12914 | -22.89152 | 64 ft | 9 kts | 223° |
| 2026-04-13 12:41 | 16.12861 | -22.89173 | 66 ft | 8 kts | 194° |
| 2026-04-13 12:41 | 16.12833 | -22.89148 | 64 ft | 6 kts | 85° |
| 2026-04-13 12:42 | 16.12857 | -22.89131 | 68 ft | 0 kts | 17° |
| 2026-04-13 12:43 | 16.13098 | -22.89056 | 62 ft | 73 kts | 17° |
| 2026-04-13 12:43 | 16.13789 | -22.88841 | 63 ft | 131 kts | 17° |
| 2026-04-13 12:43 | 16.14793 | -22.88546 | 247 ft | 159 kts | 12° |
| 2026-04-13 12:44 | 16.15861 | -22.88225 | 859 ft | 156 kts | 13° |
| 2026-04-13 12:44 | 16.16892 | -22.87934 | 1568 ft | 153 kts | 8° |
| 2026-04-13 12:44 | 16.17964 | -22.87895 | 1980 ft | 166 kts | 354° |
| 2026-04-13 12:44 | 16.19139 | -22.88282 | 2182 ft | 193 kts | 332° |
| 2026-04-13 12:45 | 16.20234 | -22.89165 | 2485 ft | 218 kts | 315° |
| 2026-04-13 12:45 | 16.21242 | -22.90484 | 2829 ft | 248 kts | 306° |
| 2026-04-13 12:45 | 16.22203 | -22.91864 | 3548 ft | 252 kts | 309° |
| 2026-04-13 12:45 | 16.23414 | -22.93253 | 4062 ft | 268 kts | 321° |
| 2026-04-13 12:46 | 16.25028 | -22.94207 | 4799 ft | 264 kts | 344° |
| 2026-04-13 12:46 | 16.26222 | -22.94347 | 5385 ft | 261 kts | 3° |
| 2026-04-13 12:46 | 16.27947 | -22.93758 | 6147 ft | 264 kts | 27° |
| 2026-04-13 12:46 | 16.29443 | -22.92653 | 6980 ft | 266 kts | 31° |
| 2026-04-13 12:47 | 16.30896 | -22.91457 | 7670 ft | 273 kts | 31° |
| 2026-04-13 12:47 | 16.32520 | -22.90440 | 8450 ft | 274 kts | 18° |
| 2026-04-13 12:47 | 16.34312 | -22.89718 | 9128 ft | 277 kts | 11° |
| 2026-04-13 12:47 | 16.36179 | -22.89110 | 9700 ft | 286 kts | 12° |
| 2026-04-13 12:48 | 16.38067 | -22.88377 | 10315 ft | 293 kts | 17° |
| 2026-04-13 12:48 | 16.39935 | -22.87341 | 10526 ft | 317 kts | 30° |
| 2026-04-13 12:48 | 16.41639 | -22.85740 | 10621 ft | 344 kts | 45° |
| 2026-04-13 12:48 | 16.43240 | -22.83835 | 10967 ft | 354 kts | 37° |
| 2026-04-13 12:49 | 16.45139 | -22.82165 | 11171 ft | 368 kts | 33° |
| 2026-04-13 12:49 | 16.47110 | -22.80400 | 11535 ft | 376 kts | 34° |
| 2026-04-13 12:49 | 16.49144 | -22.78673 | 12111 ft | 378 kts | 33° |
| 2026-04-13 12:49 | 16.51257 | -22.76999 | 12580 ft | 383 kts | 30° |
| 2026-04-13 12:50 | 16.53416 | -22.75362 | 13095 ft | 385 kts | 30° |
| 2026-04-13 12:50 | 16.55613 | -22.73730 | 13565 ft | 390 kts | 30° |
| 2026-04-13 12:50 | 16.57840 | -22.72097 | 14057 ft | 393 kts | 30° |
| 2026-04-13 12:50 | 16.60096 | -22.70455 | 14416 ft | 398 kts | 29° |
| 2026-04-13 12:51 | 16.62384 | -22.68796 | 14817 ft | 401 kts | 29° |
| 2026-04-13 12:51 | 16.64677 | -22.67133 | 15229 ft | 404 kts | 29° |
| 2026-04-13 12:51 | 16.66998 | -22.65453 | 15603 ft | 407 kts | 30° |